Decoded Metar for KSUT (SOUTHPORT in NC, USA) (IATA:SUT) | Meteo·Mobile Aviation Weather
aviador You're here:

KSUT Decoded Metar

SOUTHPORT in NC, USA
Report Time2019-02-22 03:20:00
UTC Time2019-02-22 03:46:23
Flight Rules lifr LIFR
WindCalm
Visibility402 m
Phenomena:Fog
Clouds:Overcast 002 Hf
Ceiling200 ft
Temp17°C (ISA +2)
Dew Point17°C (100% RH)
QNH1022 hPa
Density Alt220 ft
Elevation26 ft
Report Wrong Elevation
Raw Report
METAR KSUT 220320Z AUTO 00000KT 1/4SM FG OVC002 17/17 A3017 RMK AO2
T01670166=

Extra information for KSUT:More info

Metar Taf Metar & Taf Last 4 Metars F.Rules Stats Wind Profile Meteogram Temp Stats Airport Information Weather charts Add Link Nearby VenuesMetar ALERT Operation Metar Decoded Social comments

AIRNAV info for KSUT